Fairway, Kansas
Current Conditions -  °F | °C
As of 7:54 PM on Saturday 20 Dec 2014 (Local Time) from KMKC Reporting Station
Clear Clear  
Wind Chill: 33°   Ceiling: Unl
Heat Index: 39°   Visibility: 7mi
Dew Point: 33°   Wind: 9mph
Humidity: 79%   Direction: 180°S
Pressure: 30.14"   Gusts: NA
Location:  39.0312°N, 94.6315°W
Report Text: KMKC 210154Z 18008KT 7SM CLR 04/01 A3014 RMK AO2 SLP212 T00390006
Loading
Personal Weather Stations






























Interactive Weather Map New forecast layout! Learn more

10-Day Weather Forecast

Advertisements
Track Severe Weather on mobile